Time;durP1;ratioP1;P1;durP2;ratioP2;P2;SDS_P1;SDS_P2;PMS_P1;PMS_P2;Temp;Humidity;BMP_temperature;BMP_pressure;BME280_temperature;BME280_humidity;BME280_pressure;Samples;Min_cycle;Max_cycle;Signal;HPM_P1;HPM_P2
2022/06/29 00:02:18;;;;;;;26.20;19.70;;;18.90;99.90;;;;;;10390105;28;20037;-86
2022/06/29 00:07:19;;;;;;;22.42;18.40;;;18.90;99.90;;;;;;10426537;28;20037;-85
2022/06/29 00:12:20;;;;;;;24.15;18.25;;;18.70;99.90;;;;;;10398010;28;20473;-85
2022/06/29 00:17:21;;;;;;;21.33;16.67;;;18.60;99.90;;;;;;10400046;28;20029;-87
2022/06/29 00:22:21;;;;;;;26.23;18.60;;;18.40;99.90;;;;;;10389217;28;20022;-88
2022/06/29 00:27:22;;;;;;;25.45;20.15;;;18.20;99.90;;;;;;10398094;28;20022;-85
2022/06/29 00:32:23;;;;;;;22.85;18.17;;;18.10;99.90;;;;;;10403593;28;20091;-87
2022/06/29 00:37:23;;;;;;;25.98;20.20;;;18.00;99.90;;;;;;10388318;28;20120;-87
2022/06/29 00:42:24;;;;;;;26.05;19.90;;;18.00;99.90;;;;;;10384205;28;20037;-85
2022/06/29 00:47:25;;;;;;;37.97;25.95;;;18.10;99.90;;;;;;10406434;28;20037;-87
2022/06/29 00:52:26;;;;;;;31.77;24.42;;;18.20;99.90;;;;;;10424739;28;20031;-88
2022/06/29 00:57:29;;;;;;;34.15;24.13;;;18.30;99.90;;;;;;10402665;28;20044;-89
2022/06/29 01:02:34;;;;;;;36.47;25.70;;;18.40;99.90;;;;;;10386282;28;20037;-88
2022/06/29 01:07:35;;;;;;;32.40;25.13;;;18.30;99.90;;;;;;10425097;28;20084;-87
2022/06/29 01:12:36;;;;;;;30.90;23.25;;;18.30;99.90;;;;;;10409501;28;20594;-88
2022/06/29 01:17:37;;;;;;;32.60;24.15;;;18.40;99.90;;;;;;10390798;28;20040;-89
2022/06/29 01:22:38;;;;;;;28.40;22.58;;;18.40;99.90;;;;;;10405590;28;20056;-88
2022/06/29 01:27:39;;;;;;;30.75;23.52;;;18.40;99.90;;;;;;10407594;28;20033;-87
2022/06/29 01:32:40;;;;;;;35.38;26.55;;;18.40;99.90;;;;;;10406070;28;20107;-88
2022/06/29 01:37:41;;;;;;;37.85;26.60;;;18.40;99.90;;;;;;10406491;28;20478;-88
2022/06/29 01:42:42;;;;;;;37.13;26.23;;;18.40;99.90;;;;;;10408066;28;20029;-87
2022/06/29 01:47:43;;;;;;;38.25;26.42;;;18.30;99.90;;;;;;10405971;28;20033;-88
2022/06/29 01:52:43;;;;;;;42.00;28.38;;;18.30;99.90;;;;;;10403488;28;20505;-87
2022/06/29 01:57:44;;;;;;;31.20;23.75;;;18.30;99.90;;;;;;10405742;28;20083;-86
2022/06/29 02:02:45;;;;;;;34.10;24.65;;;18.30;99.90;;;;;;10391597;28;20098;-88
2022/06/29 02:07:45;;;;;;;39.67;28.33;;;18.40;99.90;;;;;;10421307;28;20033;-88
2022/06/29 02:12:46;;;;;;;39.75;28.52;;;18.40;99.90;;;;;;10384944;28;20029;-89
2022/06/29 02:17:47;;;;;;;54.33;35.33;;;18.40;99.90;;;;;;10390786;28;20492;-91
2022/06/29 02:22:47;;;;;;;51.92;34.17;;;18.40;99.90;;;;;;10391468;28;20014;-88
2022/06/29 02:27:48;;;;;;;55.10;35.17;;;18.40;99.90;;;;;;10391379;28;20030;-91
2022/06/29 02:38:07;;;;;;;65.65;40.20;;;18.30;99.90;;;;;;10422511;28;20057;-88
2022/06/29 02:43:08;;;;;;;60.85;38.95;;;18.30;99.90;;;;;;10405401;28;20029;-89
2022/06/29 02:48:09;;;;;;;60.17;37.83;;;18.30;99.90;;;;;;10400166;28;20099;-87
2022/06/29 02:53:09;;;;;;;56.13;36.00;;;18.40;99.90;;;;;;10402337;28;20033;-88
2022/06/29 02:58:10;;;;;;;57.15;36.67;;;18.30;99.90;;;;;;10391634;28;20037;-90
2022/06/29 03:19:14;;;;;;;49.30;33.25;;;18.40;99.90;;;;;;10490866;27;20398;-86
2022/06/29 03:30:39;;;;;;;55.92;36.45;;;18.80;99.90;;;;;;10462978;28;20111;-87
2022/06/29 03:36:04;;;;;;;47.25;33.72;;;18.70;99.90;;;;;;10475916;28;20024;-85
2022/06/29 03:41:05;;;;;;;48.13;34.20;;;18.60;99.90;;;;;;10453738;28;20021;-87
2022/06/29 03:46:05;;;;;;;47.08;32.90;;;18.60;99.90;;;;;;10457715;28;20043;-88
2022/06/29 03:57:03;;;;;;;50.63;32.78;;;18.70;99.90;;;;;;10455215;28;20411;-84
2022/06/29 04:08:51;;;;;;;42.60;30.20;;;18.70;99.90;;;;;;10442150;23;20095;-86
2022/06/29 04:13:52;;;;;;;41.08;29.58;;;18.70;99.90;;;;;;10381584;28;20128;-85
2022/06/29 04:18:53;;;;;;;34.55;25.08;;;18.80;99.90;;;;;;10357104;28;20072;-87
2022/06/29 04:23:53;;;;;;;35.33;26.23;;;19.00;99.90;;;;;;10360453;28;20077;-87
2022/06/29 04:28:54;;;;;;;37.50;27.17;;;19.20;99.90;;;;;;10332770;28;20385;-87
2022/06/29 04:33:55;;;;;;;34.20;24.35;;;19.20;99.90;;;;;;10347432;28;20724;-85
2022/06/29 04:38:55;;;;;;;37.22;24.83;;;19.30;99.90;;;;;;10359687;28;20097;-87
2022/06/29 04:43:56;;;;;;;34.17;23.55;;;19.50;99.90;;;;;;10334045;28;20057;-86
2022/06/29 04:48:59;;;;;;;30.52;24.02;;;19.60;99.90;;;;;;10354143;28;20482;-86
2022/06/29 04:54:00;;;;;;;29.20;23.65;;;19.70;99.90;;;;;;10331465;28;20493;-92
2022/06/29 04:59:02;;;;;;;33.70;25.45;;;19.90;99.90;;;;;;10352527;28;20511;-87
2022/06/29 05:04:02;;;;;;;30.73;22.88;;;19.80;99.90;;;;;;10364455;28;20123;-87
2022/06/29 05:09:03;;;;;;;28.60;22.52;;;19.90;99.90;;;;;;10359629;28;20050;-87
2022/06/29 05:14:04;;;;;;;30.33;21.92;;;19.90;99.90;;;;;;10349648;28;20272;-87
2022/06/29 05:19:04;;;;;;;31.85;22.23;;;20.00;99.90;;;;;;10374748;28;20489;-87
2022/06/29 05:24:05;;;;;;;30.30;22.40;;;20.20;99.90;;;;;;10328553;28;20118;-87
2022/06/29 05:29:06;;;;;;;29.77;21.65;;;20.40;99.90;;;;;;10335614;28;20042;-87
2022/06/29 05:34:06;;;;;;;27.15;20.75;;;20.50;99.90;;;;;;10344215;28;20026;-89
2022/06/29 05:39:07;;;;;;;30.23;21.92;;;20.80;99.90;;;;;;10325494;28;20061;-88
2022/06/29 05:44:08;;;;;;;31.65;23.48;;;20.80;99.90;;;;;;10327365;28;20038;-87
2022/06/29 05:49:09;;;;;;;29.08;22.45;;;20.60;99.90;;;;;;10342991;28;20058;-86
2022/06/29 05:54:10;;;;;;;30.45;23.27;;;20.40;99.90;;;;;;10347784;28;20555;-90
2022/06/29 05:59:11;;;;;;;29.42;22.63;;;20.50;99.90;;;;;;10340543;28;20034;-87
2022/06/29 06:04:11;;;;;;;28.15;21.63;;;20.50;99.90;;;;;;10364338;28;20047;-89
2022/06/29 06:09:12;;;;;;;31.42;22.90;;;20.50;99.90;;;;;;10334221;28;20132;-86
2022/06/29 06:14:13;;;;;;;28.48;22.40;;;20.70;99.90;;;;;;10353501;28;20077;-86
2022/06/29 06:19:13;;;;;;;32.28;22.92;;;20.90;99.90;;;;;;10358426;28;20390;-86
2022/06/29 06:24:14;;;;;;;26.92;21.67;;;21.10;99.90;;;;;;10324702;28;20026;-87
2022/06/29 06:29:15;;;;;;;23.50;18.77;;;21.30;99.90;;;;;;10329894;28;20088;-85
2022/06/29 06:34:16;;;;;;;30.50;20.80;;;21.60;99.90;;;;;;10334986;28;20437;-86
2022/06/29 06:39:16;;;;;;;26.80;19.90;;;22.10;99.90;;;;;;10330393;28;20525;-85
2022/06/29 06:44:17;;;;;;;24.23;19.55;;;22.20;99.90;;;;;;10324185;28;20065;-85
2022/06/29 06:49:23;;;;;;;24.83;20.10;;;22.00;99.90;;;;;;10340734;28;20038;-86
2022/06/29 06:54:23;;;;;;;25.95;19.23;;;22.10;99.90;;;;;;10329282;28;20354;-87
2022/06/29 06:59:24;;;;;;;28.65;22.05;;;22.50;99.90;;;;;;10331505;28;20533;-84
2022/06/29 07:04:24;;;;;;;32.80;20.27;;;23.40;99.90;;;;;;10328965;28;20080;-85
2022/06/29 07:09:25;;;;;;;24.98;18.98;;;24.30;99.90;;;;;;10337111;28;20502;-88
2022/06/29 07:14:25;;;;;;;27.20;20.75;;;25.00;99.90;;;;;;10355464;28;20025;-87
2022/06/29 07:19:26;;;;;;;26.08;19.55;;;25.10;99.90;;;;;;10355262;28;20026;-86
2022/06/29 07:24:26;;;;;;;25.98;19.67;;;24.80;99.90;;;;;;10323998;28;20030;-86
2022/06/29 07:29:27;;;;;;;22.17;17.95;;;25.40;99.30;;;;;;10337508;28;20033;-87
2022/06/29 07:34:28;;;;;;;26.55;20.45;;;26.00;99.50;;;;;;10322076;28;20031;-88
2022/06/29 07:39:31;;;;;;;26.08;18.13;;;26.50;94.80;;;;;;10344647;28;20037;-87
2022/06/29 07:44:31;;;;;;;23.17;17.70;;;27.10;94.60;;;;;;10340477;28;20038;-87
2022/06/29 07:49:32;;;;;;;24.52;18.08;;;27.50;91.90;;;;;;10347577;28;20033;-84
2022/06/29 07:54:33;;;;;;;24.33;16.63;;;27.70;90.20;;;;;;10350483;28;20014;-83
2022/06/29 07:59:33;;;;;;;25.05;17.30;;;27.50;91.30;;;;;;10347089;28;20049;-82
2022/06/29 08:04:34;;;;;;;25.42;18.73;;;27.50;92.30;;;;;;10350170;28;20218;-83
2022/06/29 08:09:35;;;;;;;22.85;17.67;;;27.40;90.80;;;;;;10350005;28;20053;-84
2022/06/29 08:14:35;;;;;;;27.15;17.58;;;27.10;92.30;;;;;;10352182;28;20026;-85
2022/06/29 08:19:36;;;;;;;22.20;16.60;;;27.40;91.30;;;;;;10343514;28;20033;-87
2022/06/29 08:24:36;;;;;;;23.55;17.00;;;27.60;92.70;;;;;;10348705;28;20036;-85
2022/06/29 08:29:37;;;;;;;21.35;15.35;;;27.60;90.60;;;;;;10349124;28;20052;-84
2022/06/29 08:34:40;;;;;;;18.77;16.58;;;27.80;91.50;;;;;;10344882;28;20029;-86
2022/06/29 08:39:41;;;;;;;21.85;16.38;;;27.70;90.20;;;;;;10342724;28;20026;-84
2022/06/29 08:44:42;;;;;;;23.52;16.58;;;27.30;90.00;;;;;;10358579;28;20037;-85
2022/06/29 08:49:44;;;;;;;21.67;15.75;;;27.30;90.70;;;;;;10360973;28;20232;-86
2022/06/29 08:54:48;;;;;;;21.95;15.35;;;27.40;90.50;;;;;;10363636;28;20033;-84
2022/06/29 08:59:52;;;;;;;21.02;16.55;;;27.40;90.60;;;;;;10354242;28;20045;-84
2022/06/29 09:04:54;;;;;;;20.70;15.40;;;27.80;90.40;;;;;;10342816;28;20367;-82
2022/06/29 09:10:07;;;;;;;20.25;14.95;;;28.30;90.30;;;;;;10359179;28;20389;-82
2022/06/29 09:15:10;;;;;;;18.90;14.43;;;28.50;88.60;;;;;;10345626;28;20129;-82
2022/06/29 09:20:14;;;;;;;17.27;14.15;;;28.60;87.10;;;;;;10351268;28;20046;-83
2022/06/29 09:25:22;;;;;;;17.85;13.93;;;29.00;85.40;;;;;;10349102;28;20050;-81
2022/06/29 09:30:27;;;;;;;17.90;13.50;;;29.20;85.40;;;;;;10340261;28;20482;-84
2022/06/29 09:35:28;;;;;;;21.05;13.93;;;29.80;84.90;;;;;;10343619;28;20105;-83
2022/06/29 09:40:29;;;;;;;15.93;12.93;;;30.10;83.10;;;;;;10363825;23;20062;-82
2022/06/29 09:45:29;;;;;;;16.45;13.00;;;29.60;81.60;;;;;;10344853;28;20421;-81
2022/06/29 09:50:30;;;;;;;15.85;13.20;;;29.80;82.50;;;;;;10353612;28;20126;-83
2022/06/29 09:55:31;;;;;;;17.75;14.02;;;29.40;81.30;;;;;;10349287;28;20473;-84
2022/06/29 10:06:04;;;;;;;16.48;13.13;;;29.70;80.50;;;;;;10354155;28;20417;-83
2022/06/29 10:17:19;;;;;;;17.05;14.18;;;29.70;81.10;;;;;;10355708;28;20121;-82
2022/06/29 10:22:19;;;;;;;14.60;12.55;;;29.60;80.20;;;;;;10319825;28;20033;-84
2022/06/29 10:27:20;;;;;;;15.10;13.43;;;29.80;83.50;;;;;;10349298;28;20042;-84
2022/06/29 10:32:21;;;;;;;14.35;12.60;;;29.80;80.80;;;;;;10346446;28;20033;-82
2022/06/29 10:37:21;;;;;;;16.20;13.43;;;30.00;82.80;;;;;;10348452;28;20123;-85
2022/06/29 10:47:55;;;;;;;14.45;11.77;;;29.80;82.80;;;;;;10335378;28;20540;-83
2022/06/29 10:53:03;;;;;;;16.25;12.40;;;29.90;81.10;;;;;;10326991;28;20110;-83
2022/06/29 10:58:04;;;;;;;16.45;12.75;;;29.90;80.90;;;;;;10354548;28;20096;-83
2022/06/29 11:03:13;;;;;;;17.50;12.60;;;30.00;79.30;;;;;;10353100;28;20080;-84
2022/06/29 11:13:38;;;;;;;13.63;12.23;;;30.20;80.10;;;;;;10336456;28;20436;-86
2022/06/29 11:18:38;;;;;;;16.35;12.30;;;30.30;79.40;;;;;;10333246;28;20070;-83
2022/06/29 11:23:39;;;;;;;15.18;11.85;;;30.50;78.70;;;;;;10356436;28;20120;-86
2022/06/29 11:28:42;;;;;;;13.43;11.90;;;30.60;77.40;;;;;;10351872;28;20100;-84
2022/06/29 11:33:50;;;;;;;14.65;11.73;;;31.10;77.40;;;;;;10354568;28;20026;-83
2022/06/29 11:39:03;;;;;;;13.88;11.75;;;31.40;78.90;;;;;;10355037;28;20141;-85
2022/06/29 11:44:05;;;;;;;14.52;12.98;;;31.10;75.70;;;;;;10357560;28;20030;-84
2022/06/29 11:55:03;;;;;;;12.35;11.05;;;31.50;77.80;;;;;;10343810;28;20034;-85
2022/06/29 12:00:08;;;;;;;17.50;11.88;;;31.80;75.20;;;;;;10344456;28;20053;-84
2022/06/29 12:05:09;;;;;;;12.23;10.95;;;31.40;74.60;;;;;;10361804;28;20073;-88
2022/06/29 12:10:10;;;;;;;14.02;11.10;;;31.70;76.10;;;;;;10361634;28;20109;-84
2022/06/29 12:15:10;;;;;;;15.93;11.55;;;32.10;75.60;;;;;;10366936;28;20030;-84
2022/06/29 12:20:12;;;;;;;12.90;11.05;;;32.20;73.50;;;;;;10344855;28;20528;-84
2022/06/29 12:25:13;;;;;;;15.50;12.13;;;32.00;74.90;;;;;;10361907;28;20113;-84
2022/06/29 12:30:14;;;;;;;14.10;11.43;;;32.20;73.80;;;;;;10356855;28;20105;-87
2022/06/29 12:35:14;;;;;;;14.23;11.63;;;32.10;74.00;;;;;;10360450;28;20071;-85
2022/06/29 12:40:15;;;;;;;14.55;12.63;;;32.20;75.40;;;;;;10345467;28;20076;-82
2022/06/29 12:45:15;;;;;;;13.85;11.68;;;32.30;71.80;;;;;;10348419;28;20497;-82
2022/06/29 12:50:17;;;;;;;16.48;12.20;;;32.20;72.50;;;;;;10364384;28;20029;-83
2022/06/29 12:55:19;;;;;;;17.13;12.88;;;31.80;72.30;;;;;;10342618;28;20488;-83
2022/06/29 13:00:20;;;;;;;14.27;11.80;;;31.70;73.60;;;;;;10343717;28;20027;-82
2022/06/29 13:05:21;;;;;;;17.40;12.43;;;31.60;74.90;;;;;;10357434;28;20031;-83
2022/06/29 13:10:22;;;;;;;17.95;12.40;;;31.90;75.90;;;;;;10358082;28;20045;-82
2022/06/29 13:15:22;;;;;;;13.80;11.32;;;32.30;73.50;;;;;;10353177;28;20038;-83
2022/06/29 13:20:23;;;;;;;16.70;12.07;;;32.10;73.30;;;;;;10360548;28;20022;-82
2022/06/29 13:25:23;;;;;;;15.88;10.65;;;32.10;72.20;;;;;;10362269;28;20030;-83
2022/06/29 13:30:24;;;;;;;16.27;10.85;;;31.80;73.90;;;;;;10358084;28;20037;-84
2022/06/29 13:35:24;;;;;;;16.10;11.80;;;31.70;72.60;;;;;;10350599;28;20026;-84
2022/06/29 13:40:25;;;;;;;14.07;10.68;;;31.60;73.50;;;;;;10353628;28;20066;-83
2022/06/29 13:45:26;;;;;;;19.38;11.07;;;31.70;74.40;;;;;;10343492;28;20065;-84
2022/06/29 13:50:27;;;;;;;13.10;10.68;;;31.90;74.20;;;;;;10358883;28;20033;-84
2022/06/29 13:55:27;;;;;;;14.18;10.93;;;31.80;72.90;;;;;;10360920;28;20390;-83
2022/06/29 14:00:28;;;;;;;12.65;10.93;;;31.70;73.50;;;;;;10359347;28;20017;-86
2022/06/29 14:05:30;;;;;;;14.55;11.55;;;31.80;74.20;;;;;;10342275;28;20049;-83
2022/06/29 14:10:30;;;;;;;13.98;11.35;;;31.30;73.40;;;;;;10340227;28;20034;-84
2022/06/29 14:15:31;;;;;;;15.05;11.07;;;30.90;74.40;;;;;;10342370;28;20191;-84
2022/06/29 14:20:31;;;;;;;16.55;11.23;;;30.60;76.50;;;;;;10345131;28;20038;-84
2022/06/29 14:25:32;;;;;;;13.32;11.13;;;30.50;76.40;;;;;;10342495;28;20049;-84
2022/06/29 14:30:43;;;;;;;15.50;12.00;;;30.40;78.80;;;;;;10346716;28;20661;-84
2022/06/29 14:35:45;;;;;;;12.40;11.15;;;30.30;77.00;;;;;;10354450;28;20037;-84
2022/06/29 14:40:45;;;;;;;13.27;11.40;;;30.20;78.00;;;;;;10353934;28;20077;-83
2022/06/29 14:45:46;;;;;;;13.70;11.98;;;30.10;78.30;;;;;;10350146;28;20049;-83
2022/06/29 14:50:47;;;;;;;14.02;10.98;;;30.30;78.00;;;;;;10349009;28;20623;-84
2022/06/29 14:55:47;;;;;;;12.95;11.27;;;30.40;76.80;;;;;;10331430;28;20028;-85
2022/06/29 15:00:48;;;;;;;15.30;11.00;;;30.50;77.90;;;;;;10345605;28;20073;-85
2022/06/29 15:05:49;;;;;;;12.15;10.98;;;30.80;77.40;;;;;;10337818;28;20034;-86
2022/06/29 15:10:50;;;;;;;14.40;11.02;;;30.90;75.60;;;;;;10366806;28;20026;-85
2022/06/29 15:15:50;;;;;;;16.85;11.30;;;30.50;76.10;;;;;;10341468;28;20533;-82
2022/06/29 15:20:51;;;;;;;13.75;10.95;;;30.30;77.40;;;;;;10358337;28;20784;-86
2022/06/29 15:25:51;;;;;;;14.85;10.60;;;30.10;77.80;;;;;;10346301;28;20397;-84
2022/06/29 15:30:52;;;;;;;15.48;12.00;;;30.00;78.00;;;;;;10356215;28;20030;-85
2022/06/29 15:41:11;;;;;;;16.08;11.50;;;29.90;79.70;;;;;;10345953;28;20034;-84
2022/06/29 15:46:13;;;;;;;14.07;11.50;;;29.80;79.50;;;;;;10342880;28;20054;-85
2022/06/29 15:51:13;;;;;;;14.93;11.30;;;29.80;79.30;;;;;;10329508;28;20422;-86
2022/06/29 15:56:14;;;;;;;16.30;11.63;;;29.70;79.50;;;;;;10361196;28;20045;-84
2022/06/29 16:01:15;;;;;;;15.25;10.40;;;29.70;78.70;;;;;;10354445;28;20161;-82
2022/06/29 16:06:16;;;;;;;12.93;10.57;;;29.60;79.70;;;;;;10358130;28;20046;-86
2022/06/29 16:11:16;;;;;;;13.05;10.77;;;29.90;80.70;;;;;;10347322;28;20037;-82
2022/06/29 16:16:17;;;;;;;12.50;10.73;;;30.10;79.00;;;;;;10355259;28;20026;-82
2022/06/29 16:21:17;;;;;;;14.43;10.80;;;30.10;78.20;;;;;;10345821;28;20040;-90
2022/06/29 16:26:18;;;;;;;12.15;10.95;;;30.10;79.20;;;;;;10360263;28;20169;-83
2022/06/29 16:31:18;;;;;;;14.38;11.82;;;30.10;77.50;;;;;;10351326;28;20492;-84
2022/06/29 16:36:19;;;;;;;17.67;11.88;;;29.80;78.40;;;;;;10356734;28;20050;-83
2022/06/29 16:41:21;;;;;;;13.35;11.73;;;29.70;79.50;;;;;;10356128;28;20031;-83
2022/06/29 16:46:21;;;;;;;13.07;11.50;;;29.60;80.10;;;;;;10356090;28;20697;-83
2022/06/29 16:51:22;;;;;;;13.35;11.65;;;29.60;80.80;;;;;;10368028;28;20229;-82
2022/06/29 16:56:23;;;;;;;15.00;11.50;;;29.50;81.70;;;;;;10367093;28;20034;-82
2022/06/29 17:01:24;;;;;;;15.18;11.73;;;29.40;81.70;;;;;;10365740;28;20119;-83
2022/06/29 17:06:24;;;;;;;14.25;11.40;;;29.10;82.90;;;;;;10342522;28;20156;-82
2022/06/29 17:11:25;;;;;;;14.68;11.13;;;28.90;85.10;;;;;;10356006;28;20034;-85
2022/06/29 17:16:26;;;;;;;23.15;12.02;;;28.70;87.20;;;;;;10407103;23;20065;-83
2022/06/29 17:21:36;;;;;;;31.73;16.23;;;28.10;86.70;;;;;;10429864;28;20037;-84
2022/06/29 17:26:36;;;;;;;40.50;19.55;;;26.20;99.90;;;;;;10439520;28;20464;-83
2022/06/29 17:31:37;;;;;;;33.92;18.75;;;25.00;99.90;;;;;;10441538;28;20029;-83
2022/06/29 17:36:38;;;;;;;39.38;19.98;;;24.20;99.90;;;;;;10445202;28;20406;-86
2022/06/29 17:41:38;;;;;;;38.22;23.17;;;23.60;99.90;;;;;;10444942;28;20028;-84
2022/06/29 17:46:39;;;;;;;34.65;24.30;;;23.10;99.90;;;;;;10432445;28;20246;-84
2022/06/29 17:51:40;;;;;;;41.70;26.33;;;22.70;99.90;;;;;;10448650;28;20029;-83
2022/06/29 17:56:40;;;;;;;40.50;27.17;;;22.50;99.90;;;;;;10428637;28;20025;-83
2022/06/29 18:01:41;;;;;;;39.97;27.38;;;22.50;99.90;;;;;;10432902;28;20025;-82
2022/06/29 18:06:41;;;;;;;41.08;28.10;;;22.60;99.90;;;;;;10414757;28;20038;-82
2022/06/29 18:11:52;;;;;;;46.08;32.03;;;22.70;99.90;;;;;;10403171;28;20779;-82
2022/06/29 18:16:53;;;;;;;42.10;30.15;;;22.70;99.90;;;;;;10400674;28;20053;-82
2022/06/29 18:21:53;;;;;;;46.38;32.78;;;22.70;99.90;;;;;;10411424;28;20071;-82
2022/06/29 18:26:54;;;;;;;43.53;29.63;;;22.70;99.90;;;;;;10404442;28;20162;-82
2022/06/29 18:31:55;;;;;;;27.88;22.30;;;22.70;99.90;;;;;;10403166;28;20025;-82
2022/06/29 18:36:56;;;;;;;40.55;27.85;;;22.60;99.90;;;;;;10405462;28;20025;-83
2022/06/29 18:41:59;;;;;;;33.30;23.95;;;22.70;99.90;;;;;;10403918;28;20033;-88
2022/06/29 18:46:59;;;;;;;33.45;27.25;;;22.80;99.90;;;;;;10398254;28;20069;-84
2022/06/29 18:52:00;;;;;;;32.58;26.30;;;22.80;99.90;;;;;;10402589;28;20109;-84
2022/06/29 18:57:01;;;;;;;35.30;25.77;;;22.80;99.90;;;;;;10397181;28;20495;-82
2022/06/29 19:02:02;;;;;;;26.55;21.73;;;22.80;99.90;;;;;;10403462;28;20064;-84
2022/06/29 19:07:03;;;;;;;28.63;24.10;;;22.70;99.90;;;;;;10402745;28;20507;-82
2022/06/29 19:12:04;;;;;;;29.98;24.67;;;22.80;99.90;;;;;;10401541;28;20041;-86
2022/06/29 19:17:05;;;;;;;34.10;26.05;;;22.70;99.90;;;;;;10398383;28;20054;-84
2022/06/29 19:22:05;;;;;;;40.63;27.27;;;22.60;99.90;;;;;;10380759;28;20030;-83
2022/06/29 19:27:08;;;;;;;35.10;27.65;;;22.60;99.90;;;;;;10375022;28;20041;-85
2022/06/29 19:32:09;;;;;;;35.50;26.38;;;22.60;99.90;;;;;;10390105;28;20081;-84
2022/06/29 19:37:10;;;;;;;32.30;23.50;;;22.60;99.90;;;;;;10394148;28;20113;-85
2022/06/29 19:42:11;;;;;;;75.93;31.60;;;22.70;99.90;;;;;;10390595;28;20036;-85
2022/06/29 19:47:12;;;;;;;32.35;26.02;;;22.70;99.90;;;;;;10395411;28;20481;-83
2022/06/29 19:52:18;;;;;;;32.72;27.55;;;22.80;99.90;;;;;;10404575;28;20045;-84
2022/06/29 19:57:18;;;;;;;30.02;25.05;;;22.70;99.90;;;;;;10390250;28;20072;-84
2022/06/29 20:02:20;;;;;;;30.67;25.58;;;22.80;99.90;;;;;;10409727;28;20137;-85
2022/06/29 20:07:21;;;;;;;34.65;25.27;;;22.80;99.90;;;;;;10387319;28;20066;-84
2022/06/29 20:12:23;;;;;;;34.85;28.30;;;22.70;99.90;;;;;;10396534;28;20038;-85
2022/06/29 20:17:24;;;;;;;33.80;28.70;;;22.60;99.90;;;;;;10394035;28;20077;-84
2022/06/29 20:22:24;;;;;;;28.67;25.45;;;22.40;99.90;;;;;;10392657;28;20029;-85
2022/06/29 20:27:25;;;;;;;34.75;28.42;;;22.30;99.90;;;;;;10392792;28;20046;-84
2022/06/29 20:32:26;;;;;;;38.42;29.08;;;22.20;99.90;;;;;;10403320;28;20053;-85
2022/06/29 20:37:27;;;;;;;32.15;27.50;;;22.20;99.90;;;;;;10404873;28;20434;-85
2022/06/29 20:42:27;;;;;;;32.65;29.15;;;22.10;99.90;;;;;;10391124;28;20025;-83
2022/06/29 20:47:28;;;;;;;31.17;27.80;;;22.20;99.90;;;;;;10392194;28;20041;-85
2022/06/29 20:52:29;;;;;;;32.58;27.73;;;22.20;99.90;;;;;;10402674;28;20125;-83
2022/06/29 20:57:29;;;;;;;32.25;26.75;;;22.30;99.90;;;;;;10387252;28;20038;-84
2022/06/29 21:02:30;;;;;;;31.25;25.98;;;22.40;99.90;;;;;;10394844;28;20108;-84
2022/06/29 21:07:32;;;;;;;32.60;27.50;;;22.40;99.90;;;;;;10391596;28;20054;-85
2022/06/29 21:12:32;;;;;;;31.10;26.13;;;22.30;99.90;;;;;;10404118;28;20026;-84
2022/06/29 21:17:33;;;;;;;30.00;26.30;;;22.30;99.90;;;;;;10407878;28;20045;-84
2022/06/29 21:22:34;;;;;;;32.53;27.92;;;22.30;99.90;;;;;;10409380;28;20053;-84
2022/06/29 21:27:41;;;;;;;32.65;28.63;;;22.30;99.90;;;;;;10408325;28;20040;-84
2022/06/29 21:32:41;;;;;;;32.70;26.73;;;22.20;99.90;;;;;;10422600;28;20707;-84
2022/06/29 21:37:42;;;;;;;32.45;27.02;;;22.20;99.90;;;;;;10417178;28;20108;-84
2022/06/29 21:42:42;;;;;;;34.83;29.05;;;22.20;99.90;;;;;;10407580;28;20022;-84
2022/06/29 21:47:43;;;;;;;31.88;27.90;;;22.20;99.90;;;;;;10396189;28;20409;-84
2022/06/29 21:52:45;;;;;;;37.38;28.60;;;22.10;99.90;;;;;;10408267;28;20669;-84
2022/06/29 21:57:46;;;;;;;34.97;29.42;;;22.10;99.90;;;;;;10406517;28;20424;-84
2022/06/29 22:02:47;;;;;;;31.25;27.83;;;22.00;99.90;;;;;;10405920;28;20036;-85
2022/06/29 22:07:48;;;;;;;32.25;28.02;;;21.90;99.90;;;;;;10405067;28;20041;-83
2022/06/29 22:12:48;;;;;;;35.65;28.70;;;21.90;99.90;;;;;;10405169;28;20040;-84
2022/06/29 22:17:49;;;;;;;33.00;29.40;;;21.90;99.90;;;;;;10406467;28;20053;-84
2022/06/29 22:22:50;;;;;;;35.03;30.33;;;21.80;99.90;;;;;;10398576;28;20549;-85
2022/06/29 22:27:54;;;;;;;36.28;29.50;;;21.80;99.90;;;;;;10405730;28;20120;-84
2022/06/29 22:32:54;;;;;;;37.30;30.88;;;21.70;99.90;;;;;;10406496;28;20032;-83
2022/06/29 22:37:55;;;;;;;34.45;29.98;;;21.60;99.90;;;;;;10408886;28;20028;-84
2022/06/29 22:42:59;;;;;;;36.85;31.42;;;21.60;99.90;;;;;;10405642;28;20032;-84
2022/06/29 22:47:59;;;;;;;36.50;30.50;;;21.60;99.90;;;;;;10404307;28;20037;-84
2022/06/29 22:53:00;;;;;;;34.92;29.48;;;21.60;99.90;;;;;;10411132;28;20400;-83
2022/06/29 22:58:01;;;;;;;39.95;31.88;;;21.50;99.90;;;;;;10404452;28;20037;-84
2022/06/29 23:03:02;;;;;;;38.85;31.77;;;21.50;99.90;;;;;;10410445;28;20032;-84
2022/06/29 23:08:02;;;;;;;39.65;30.92;;;21.50;99.90;;;;;;10404737;28;20389;-84
2022/06/29 23:13:03;;;;;;;41.20;31.83;;;21.50;99.90;;;;;;10404268;28;20472;-83
2022/06/29 23:18:04;;;;;;;42.45;32.05;;;21.40;99.90;;;;;;10414501;28;20104;-83
2022/06/29 23:23:04;;;;;;;41.92;32.70;;;21.40;99.90;;;;;;10413461;28;20026;-83
2022/06/29 23:28:05;;;;;;;41.58;33.38;;;21.40;99.90;;;;;;10414814;28;20049;-84
2022/06/29 23:33:06;;;;;;;39.55;32.38;;;21.30;99.90;;;;;;10418983;28;20029;-84
2022/06/29 23:38:07;;;;;;;38.42;32.03;;;21.30;99.90;;;;;;10413446;28;20060;-82
2022/06/29 23:43:07;;;;;;;41.60;33.08;;;21.30;99.90;;;;;;10412241;28;20022;-84
2022/06/29 23:48:08;;;;;;;43.78;35.17;;;21.30;99.90;;;;;;10406996;28;20248;-84
2022/06/29 23:53:08;;;;;;;39.70;32.40;;;21.30;99.90;;;;;;10411820;28;20033;-83
2022/06/29 23:58:10;;;;;;;46.38;34.70;;;21.20;99.90;;;;;;10411611;28;20029;-83
